createdAt,value
2022-12-29T00:01:31.889Z,67.73
2022-12-29T00:06:33.812Z,68.91
2022-12-29T00:11:35.294Z,67.62
2022-12-29T00:16:37.410Z,67.96
2022-12-29T00:21:57.486Z,66.90
2022-12-29T00:27:23.538Z,68.29
2022-12-29T00:32:43.770Z,68.50
2022-12-29T00:38:07.158Z,68.64
2022-12-29T00:43:27.791Z,70.55
2022-12-29T00:48:47.653Z,69.82
2022-12-29T00:53:49.113Z,70.55
2022-12-29T00:58:50.557Z,71.73
2022-12-29T01:03:51.981Z,71.93
2022-12-29T01:09:13.414Z,72.45
2022-12-29T01:14:15.033Z,72.41
2022-12-29T01:19:16.849Z,72.81
2022-12-29T01:24:20.824Z,73.18
2022-12-29T01:29:22.546Z,73.54
2022-12-29T01:34:24.027Z,74.26
2022-12-29T01:39:25.478Z,74.94
2022-12-29T01:44:59.215Z,76.41
2022-12-29T01:50:07.070Z,77.40
2022-12-29T01:55:11.732Z,76.38
2022-12-29T02:00:14.952Z,77.19
2022-12-29T02:05:27.231Z,78.10
2022-12-29T02:10:32.643Z,77.37
2022-12-29T02:15:47.499Z,78.30
2022-12-29T02:21:07.373Z,76.57
2022-12-29T02:26:36.796Z,75.79
2022-12-29T02:31:49.993Z,75.27
2022-12-29T02:37:06.461Z,75.24
2022-12-29T02:42:21.075Z,74.49
2022-12-29T02:47:49.786Z,73.95
2022-12-29T02:53:02.978Z,73.99
2022-12-29T02:58:17.519Z,73.28
2022-12-29T03:03:57.415Z,72.02
2022-12-29T03:09:28.388Z,72.86
2022-12-29T03:15:09.835Z,71.86
2022-12-29T03:20:19.452Z,72.00
2022-12-29T03:25:34.349Z,71.71
2022-12-29T03:30:40.709Z,71.29
2022-12-29T03:35:44.858Z,72.12
2022-12-29T03:40:55.284Z,71.09
2022-12-29T03:45:58.466Z,71.34
2022-12-29T03:50:59.990Z,71.33
2022-12-29T03:56:03.026Z,71.47
2022-12-29T04:01:04.917Z,71.41
2022-12-29T04:06:09.518Z,70.98
2022-12-29T04:11:16.630Z,70.01
2022-12-29T04:16:20.151Z,71.83
2022-12-29T04:21:22.182Z,70.67
2022-12-29T04:26:23.728Z,69.66
2022-12-29T04:31:32.521Z,70.60
2022-12-29T04:36:34.411Z,70.16
2022-12-29T04:41:36.310Z,70.49
2022-12-29T04:46:38.630Z,69.81
2022-12-29T04:51:44.801Z,70.68
2022-12-29T04:56:50.402Z,71.27
2022-12-29T05:01:53.115Z,70.37
2022-12-29T05:06:54.795Z,70.50
2022-12-29T05:11:56.315Z,71.26
2022-12-29T05:16:58.422Z,69.85
2022-12-29T05:22:01.324Z,70.23
2022-12-29T05:27:03.171Z,69.91
2022-12-29T05:32:23.387Z,69.77
2022-12-29T05:37:25.173Z,70.11
2022-12-29T05:42:26.977Z,70.26
2022-12-29T05:47:39.979Z,70.32
2022-12-29T05:53:19.981Z,70.02
2022-12-29T05:58:21.794Z,70.99
2022-12-29T06:03:23.335Z,70.77
2022-12-29T06:08:26.832Z,69.81
2022-12-29T06:13:28.554Z,70.26
2022-12-29T06:18:30.924Z,70.57
2022-12-29T06:23:33.165Z,70.66
2022-12-29T06:28:34.528Z,70.51
2022-12-29T06:33:36.258Z,70.31
2022-12-29T06:38:37.777Z,70.46
2022-12-29T06:43:39.746Z,70.59
2022-12-29T06:48:51.834Z,70.80
2022-12-29T06:53:53.269Z,70.19
2022-12-29T06:58:54.750Z,71.35
2022-12-29T07:03:56.232Z,71.26
2022-12-29T07:08:58.344Z,71.40
2022-12-29T07:14:02.255Z,71.17
2022-12-29T07:19:04.024Z,72.58
2022-12-29T07:24:05.886Z,71.92
2022-12-29T07:29:07.342Z,72.69
2022-12-29T07:34:09.794Z,72.34
2022-12-29T07:39:12.512Z,73.08
2022-12-29T07:44:13.970Z,72.85
2022-12-29T07:49:38.370Z,72.25
2022-12-29T07:54:39.789Z,72.57
2022-12-29T07:59:41.229Z,71.64
2022-12-29T08:04:42.668Z,71.34
2022-12-29T08:09:44.151Z,71.00
2022-12-29T08:14:45.768Z,71.64
2022-12-29T08:19:47.111Z,71.92
2022-12-29T08:24:49.115Z,71.68
2022-12-29T08:29:50.584Z,70.99
2022-12-29T08:34:52.000Z,71.16
2022-12-29T08:39:53.434Z,70.56
2022-12-29T08:44:54.863Z,69.63
2022-12-29T08:49:56.304Z,68.89
2022-12-29T08:54:57.755Z,68.44
2022-12-29T08:59:59.331Z,68.27
2022-12-29T09:05:01.935Z,68.36
2022-12-29T09:10:04.385Z,69.11
2022-12-29T09:22:44.217Z,68.90
2022-12-29T09:27:45.668Z,68.46
2022-12-29T09:32:53.392Z,67.59
2022-12-29T09:37:56.548Z,67.74
2022-12-29T09:43:18.496Z,67.03
2022-12-29T09:48:30.314Z,67.00
2022-12-29T09:53:43.140Z,66.66
2022-12-29T09:58:57.729Z,66.22
2022-12-29T10:04:03.887Z,65.82
2022-12-29T10:09:32.493Z,65.84
2022-12-29T10:14:39.845Z,65.29
2022-12-29T10:20:00.141Z,65.07
2022-12-29T10:25:04.708Z,65.47
2022-12-29T10:30:06.697Z,64.73
2022-12-29T10:35:17.226Z,64.89
2022-12-29T10:40:26.503Z,66.14
2022-12-29T10:45:31.912Z,65.26
2022-12-29T10:50:33.864Z,65.55
2022-12-29T10:55:37.583Z,65.26
2022-12-29T11:00:39.116Z,65.06
2022-12-29T11:06:07.162Z,64.69
2022-12-29T11:11:10.415Z,64.46
2022-12-29T11:16:13.198Z,64.53
2022-12-29T11:21:41.145Z,65.57
2022-12-29T11:26:45.558Z,64.15
2022-12-29T11:31:49.785Z,64.49
2022-12-29T11:36:54.545Z,64.39
2022-12-29T11:41:58.372Z,64.08
2022-12-29T11:46:59.844Z,64.52
2022-12-29T11:52:01.663Z,64.10
2022-12-29T11:57:16.744Z,63.90
2022-12-29T12:02:21.213Z,63.21
2022-12-29T12:07:40.131Z,63.13
2022-12-29T12:12:54.713Z,63.98
2022-12-29T12:18:12.457Z,62.71
2022-12-29T12:23:26.166Z,62.40
2022-12-29T12:28:51.945Z,62.16
2022-12-29T12:34:00.582Z,61.82
2022-12-29T12:39:11.655Z,61.74
2022-12-29T12:44:47.221Z,61.27
2022-12-29T12:50:27.767Z,62.51
2022-12-29T12:56:04.697Z,61.66
2022-12-29T13:01:15.506Z,61.57
2022-12-29T13:06:32.532Z,61.80
2022-12-29T13:11:54.900Z,61.89
2022-12-29T13:17:24.628Z,61.61
2022-12-29T13:22:46.676Z,62.18
2022-12-29T13:28:01.847Z,63.54
2022-12-29T13:33:21.070Z,63.12
2022-12-29T13:38:37.260Z,63.58
2022-12-29T13:43:42.792Z,62.32
2022-12-29T13:48:51.809Z,62.67
2022-12-29T13:54:10.765Z,62.57
2022-12-29T13:59:39.445Z,63.85
2022-12-29T14:05:00.300Z,64.66
2022-12-29T14:10:01.963Z,65.90
2022-12-29T14:15:10.732Z,65.57
2022-12-29T14:20:22.468Z,65.55
2022-12-29T14:25:59.490Z,64.63
2022-12-29T14:31:03.191Z,65.57
2022-12-29T14:36:26.328Z,65.29
2022-12-29T14:41:38.763Z,67.38
2022-12-29T14:46:46.264Z,67.91
2022-12-29T14:51:49.727Z,66.95
2022-12-29T14:56:51.292Z,66.91
2022-12-29T15:01:56.013Z,66.50
2022-12-29T15:06:58.138Z,66.00
2022-12-29T15:12:20.834Z,66.47
2022-12-29T15:17:29.002Z,66.71
2022-12-29T15:22:31.339Z,67.27
2022-12-29T15:27:32.812Z,66.51
2022-12-29T15:32:41.820Z,66.49
2022-12-29T15:37:43.586Z,66.58
2022-12-29T15:43:08.374Z,67.50
2022-12-29T15:48:22.243Z,66.86
2022-12-29T15:53:34.549Z,65.50
2022-12-29T15:58:48.554Z,65.33
2022-12-29T16:03:52.367Z,66.29
2022-12-29T16:08:59.227Z,65.82
2022-12-29T16:14:03.945Z,65.33
2022-12-29T16:19:14.166Z,65.15
2022-12-29T16:24:20.500Z,65.77
2022-12-29T16:29:22.947Z,65.92
2022-12-29T16:34:30.579Z,66.61
2022-12-29T16:39:42.657Z,67.47
2022-12-29T16:44:44.076Z,66.29
2022-12-29T16:49:52.285Z,66.13
2022-12-29T16:54:57.065Z,66.96
2022-12-29T17:00:02.153Z,67.22
2022-12-29T17:05:03.719Z,67.79
2022-12-29T17:10:05.495Z,67.88
2022-12-29T17:15:13.853Z,67.14
2022-12-29T17:20:22.074Z,68.53
2022-12-29T17:25:29.448Z,69.12
2022-12-29T17:30:34.567Z,69.48
2022-12-29T17:35:36.391Z,69.78
2022-12-29T17:40:37.740Z,70.06
2022-12-29T17:45:40.051Z,70.31
2022-12-29T18:04:41.073Z,71.18
2022-12-29T18:09:42.512Z,71.83
2022-12-29T18:14:43.964Z,71.90
2022-12-29T18:19:45.372Z,71.70
2022-12-29T18:24:46.790Z,71.72
2022-12-29T18:29:48.933Z,72.14
2022-12-29T18:34:50.373Z,72.21
2022-12-29T18:39:51.789Z,73.08
2022-12-29T18:44:53.362Z,73.22
2022-12-29T18:49:54.873Z,73.18
2022-12-29T18:54:56.273Z,73.52
2022-12-29T18:59:57.699Z,73.57
2022-12-29T19:05:06.765Z,73.70
2022-12-29T19:30:59.756Z,73.06
2022-12-29T19:36:03.037Z,73.42
2022-12-29T19:41:07.091Z,73.02
2022-12-29T19:46:10.866Z,73.19
2022-12-29T19:51:17.051Z,72.56
2022-12-29T19:56:18.564Z,73.59
2022-12-29T20:01:22.610Z,72.86
2022-12-29T20:06:24.221Z,72.98
2022-12-29T20:11:26.090Z,73.09
2022-12-29T20:16:29.590Z,72.51
2022-12-29T20:21:31.107Z,72.36
2022-12-29T20:26:32.570Z,72.31
2022-12-29T20:31:36.936Z,71.64
2022-12-29T20:36:47.342Z,70.97
2022-12-29T20:41:48.824Z,71.72
2022-12-29T20:46:50.288Z,71.23
2022-12-29T20:52:07.614Z,70.81
2022-12-29T20:57:09.075Z,71.16
2022-12-29T21:02:22.250Z,70.54
2022-12-29T21:07:23.907Z,71.35
2022-12-29T21:12:25.393Z,71.33
2022-12-29T21:17:26.848Z,71.64
2022-12-29T21:22:28.762Z,71.57
2022-12-29T21:27:30.224Z,72.67
2022-12-29T21:32:31.652Z,72.66
2022-12-29T21:37:33.097Z,73.09
2022-12-29T21:42:34.525Z,72.57
2022-12-29T21:47:59.089Z,73.23
2022-12-29T21:53:00.508Z,73.15
2022-12-29T21:58:20.266Z,73.67
2022-12-29T22:03:40.288Z,73.81
2022-12-29T22:09:00.372Z,73.58
2022-12-29T22:14:01.807Z,73.85
2022-12-29T22:19:03.584Z,73.56
2022-12-29T22:24:05.304Z,73.56
2022-12-29T22:29:06.676Z,73.21
2022-12-29T22:34:08.103Z,73.40
2022-12-29T22:39:10.486Z,73.67
2022-12-29T22:44:11.929Z,73.28
2022-12-29T22:49:13.384Z,73.82
2022-12-29T22:54:15.197Z,73.48
2022-12-29T22:59:16.651Z,73.98
2022-12-29T23:09:39.681Z,73.49
2022-12-29T23:14:41.142Z,74.30
2022-12-29T23:19:42.595Z,73.85
2022-12-29T23:24:44.028Z,73.62
2022-12-29T23:29:45.493Z,73.64
2022-12-29T23:34:46.993Z,73.29
2022-12-29T23:39:48.445Z,73.48
2022-12-29T23:44:49.903Z,73.12
2022-12-29T23:49:51.335Z,73.67
2022-12-29T23:54:52.753Z,73.82
2022-12-29T23:59:54.192Z,74.18
